createdAt,value
2022-07-30T00:00:48.447Z,17.50
2022-07-30T00:03:17.013Z,17.40
2022-07-30T00:05:45.579Z,17.40
2022-07-30T00:08:15.567Z,17.40
2022-07-30T00:10:45.154Z,17.30
2022-07-30T00:13:14.476Z,17.30
2022-07-30T00:15:43.308Z,17.20
2022-07-30T00:18:12.192Z,17.20
2022-07-30T00:20:43.634Z,17.20
2022-07-30T00:23:13.094Z,17.20
2022-07-30T00:25:43.015Z,17.20
2022-07-30T00:28:11.488Z,17.10
2022-07-30T00:30:40.870Z,17.10
2022-07-30T00:33:09.696Z,17.10
2022-07-30T00:35:39.173Z,17.10
2022-07-30T00:38:07.702Z,17.10
2022-07-30T00:40:36.203Z,17.10
2022-07-30T00:43:06.174Z,17.10
2022-07-30T00:45:36.031Z,17.10
2022-07-30T00:48:04.813Z,17.10
2022-07-30T00:50:33.358Z,17.10
2022-07-30T00:53:02.046Z,17.00
2022-07-30T00:55:30.762Z,17.00
2022-07-30T00:57:59.859Z,17.00
2022-07-30T01:00:30.267Z,17.00
2022-07-30T01:03:01.079Z,17.00
2022-07-30T01:05:29.594Z,17.00
2022-07-30T01:07:58.323Z,17.00
2022-07-30T01:10:27.340Z,17.00
2022-07-30T01:12:57.204Z,17.00
2022-07-30T01:15:26.696Z,17.10
2022-07-30T01:18:01.139Z,17.10
2022-07-30T01:20:34.520Z,17.20
2022-07-30T01:23:19.305Z,17.20
2022-07-30T01:25:55.655Z,17.20
2022-07-30T01:28:28.904Z,17.20
2022-07-30T01:30:59.289Z,17.20
2022-07-30T01:33:29.865Z,17.20
2022-07-30T01:36:00.395Z,17.10
2022-07-30T01:38:35.018Z,17.20
2022-07-30T01:41:07.748Z,17.20
2022-07-30T01:43:37.876Z,17.20
2022-07-30T01:46:08.024Z,17.20
2022-07-30T01:48:40.809Z,17.20
2022-07-30T01:51:14.183Z,17.10
2022-07-30T01:53:50.375Z,17.10
2022-07-30T01:56:26.227Z,17.10
2022-07-30T01:58:57.225Z,17.00
2022-07-30T02:01:28.387Z,17.00
2022-07-30T02:04:04.051Z,17.00
2022-07-30T02:06:40.301Z,17.00
2022-07-30T02:09:12.565Z,16.90
2022-07-30T02:12:05.066Z,16.90
2022-07-30T02:14:42.496Z,16.80
2022-07-30T02:17:18.845Z,16.80
2022-07-30T02:19:52.936Z,16.70
2022-07-30T02:22:24.368Z,16.70
2022-07-30T02:24:54.598Z,16.70
2022-07-30T02:27:28.653Z,16.70
2022-07-30T02:30:00.591Z,16.70
2022-07-30T02:32:41.457Z,16.70
2022-07-30T02:35:15.200Z,16.80
2022-07-30T02:37:45.256Z,16.90
2022-07-30T02:40:17.062Z,16.90
2022-07-30T02:42:50.470Z,16.90
2022-07-30T02:45:25.911Z,16.90
2022-07-30T02:47:58.620Z,16.90
2022-07-30T02:50:28.520Z,16.80
2022-07-30T02:52:59.205Z,16.80
2022-07-30T02:55:31.237Z,16.80
2022-07-30T02:58:02.288Z,16.80
2022-07-30T03:00:32.108Z,16.80
2022-07-30T03:03:02.050Z,16.80
2022-07-30T03:05:31.252Z,16.80
2022-07-30T03:08:02.542Z,16.80
2022-07-30T03:10:33.065Z,16.80
2022-07-30T03:13:05.642Z,16.80
2022-07-30T03:15:39.316Z,16.80
2022-07-30T03:18:12.844Z,16.80
2022-07-30T03:20:42.201Z,16.80
2022-07-30T03:23:13.776Z,16.80
2022-07-30T03:25:43.922Z,16.80
2022-07-30T03:28:15.371Z,16.80
2022-07-30T03:30:45.163Z,16.80
2022-07-30T03:33:15.919Z,16.80
2022-07-30T03:35:47.344Z,16.80
2022-07-30T03:38:16.238Z,16.80
2022-07-30T03:40:46.526Z,16.80
2022-07-30T03:43:32.560Z,16.70
2022-07-30T03:46:05.327Z,16.70
2022-07-30T03:48:37.832Z,16.70
2022-07-30T03:51:10.295Z,16.70
2022-07-30T03:53:42.984Z,16.70
2022-07-30T03:56:30.558Z,16.80
2022-07-30T03:59:15.159Z,16.90
2022-07-30T04:01:43.940Z,16.90
2022-07-30T04:04:34.129Z,17.00
2022-07-30T04:07:03.767Z,17.10
2022-07-30T04:09:32.471Z,17.10
2022-07-30T04:12:13.903Z,17.10
2022-07-30T04:14:46.136Z,17.10
2022-07-30T04:17:23.515Z,17.10
2022-07-30T04:19:54.862Z,17.20
2022-07-30T04:22:29.161Z,17.30
2022-07-30T04:24:58.605Z,17.50
2022-07-30T04:27:27.533Z,17.60
2022-07-30T04:29:58.149Z,17.50
2022-07-30T04:32:26.836Z,17.40
2022-07-30T04:34:56.863Z,17.50
2022-07-30T04:37:43.975Z,17.60
2022-07-30T04:40:12.825Z,17.60
2022-07-30T04:42:41.409Z,17.60
2022-07-30T04:45:14.375Z,17.60
2022-07-30T04:48:12.059Z,17.60
2022-07-30T04:50:46.733Z,17.70
2022-07-30T04:53:19.797Z,17.70
2022-07-30T04:55:56.876Z,17.70
2022-07-30T04:58:29.749Z,17.80
2022-07-30T05:01:03.136Z,17.90
2022-07-30T05:03:36.124Z,18.10
2022-07-30T05:06:06.480Z,18.30
2022-07-30T05:08:40.148Z,18.40
2022-07-30T05:11:13.928Z,18.50
2022-07-30T05:13:46.101Z,18.60
2022-07-30T05:16:17.671Z,18.70
2022-07-30T05:18:46.682Z,18.70
2022-07-30T05:21:15.371Z,18.70
2022-07-30T05:23:50.598Z,18.70
2022-07-30T05:26:48.241Z,18.70
2022-07-30T05:29:20.389Z,19.00
2022-07-30T05:31:54.707Z,19.30
2022-07-30T05:34:31.402Z,19.50
2022-07-30T05:37:00.174Z,19.50
2022-07-30T05:39:28.982Z,19.70
2022-07-30T05:42:22.045Z,19.80
2022-07-30T05:44:53.621Z,19.70
2022-07-30T05:47:23.591Z,19.80
2022-07-30T05:49:53.275Z,19.70
2022-07-30T05:52:21.756Z,19.70
2022-07-30T05:54:51.018Z,19.80
2022-07-30T05:57:42.153Z,19.90
2022-07-30T06:00:12.450Z,19.80
2022-07-30T06:02:52.965Z,19.80
2022-07-30T06:05:22.048Z,19.80
2022-07-30T06:07:50.680Z,19.80
2022-07-30T06:10:22.405Z,19.90
2022-07-30T06:12:51.691Z,20.00
2022-07-30T06:15:25.641Z,20.00
2022-07-30T06:17:59.516Z,20.00
2022-07-30T06:20:52.341Z,20.40
2022-07-30T06:23:39.554Z,20.70
2022-07-30T06:26:16.866Z,20.80
2022-07-30T06:28:45.873Z,21.10
2022-07-30T06:31:34.406Z,21.30
2022-07-30T06:34:04.438Z,21.00
2022-07-30T06:36:38.806Z,21.00
2022-07-30T06:39:13.585Z,20.90
2022-07-30T06:42:03.310Z,21.10
2022-07-30T06:44:51.964Z,21.30
2022-07-30T06:47:29.228Z,21.40
2022-07-30T06:50:02.999Z,21.60
2022-07-30T06:52:34.234Z,21.50
2022-07-30T06:55:03.342Z,21.70
2022-07-30T06:57:42.629Z,21.90
2022-07-30T07:00:30.601Z,22.20
2022-07-30T07:03:06.540Z,22.60
2022-07-30T07:05:40.497Z,22.90
2022-07-30T07:08:09.194Z,23.40
2022-07-30T07:10:41.524Z,23.20
2022-07-30T07:13:15.339Z,23.30
2022-07-30T07:15:44.171Z,23.40
2022-07-30T07:18:18.211Z,23.00
2022-07-30T07:20:57.170Z,22.70
2022-07-30T07:23:26.085Z,22.40
2022-07-30T07:26:14.604Z,22.60
2022-07-30T07:28:43.499Z,22.80
2022-07-30T07:32:05.788Z,23.10
2022-07-30T07:34:01.805Z,23.50
2022-07-30T07:36:32.650Z,23.60
2022-07-30T07:39:03.486Z,23.80
2022-07-30T07:41:48.952Z,24.10
2022-07-30T07:44:22.416Z,24.20
2022-07-30T07:46:50.934Z,24.20
2022-07-30T07:49:19.695Z,23.90
2022-07-30T07:51:53.888Z,24.30
2022-07-30T07:54:23.451Z,24.20
2022-07-30T07:56:56.608Z,23.70
2022-07-30T07:59:39.999Z,23.40
2022-07-30T08:02:18.044Z,23.30
2022-07-30T08:05:08.454Z,23.10
2022-07-30T08:07:45.160Z,22.70
2022-07-30T08:10:32.768Z,22.60
2022-07-30T08:13:48.849Z,22.40
2022-07-30T08:16:27.953Z,22.40
2022-07-30T08:19:31.942Z,22.30
2022-07-30T08:22:13.858Z,22.40
2022-07-30T08:24:44.363Z,22.60
2022-07-30T08:27:12.892Z,22.50
2022-07-30T08:29:41.471Z,22.80
2022-07-30T08:32:10.124Z,23.00
2022-07-30T08:34:41.230Z,23.20
2022-07-30T08:37:10.757Z,23.30
2022-07-30T08:39:44.456Z,23.30
2022-07-30T08:42:16.921Z,23.30
2022-07-30T08:44:47.183Z,23.20
2022-07-30T08:47:19.529Z,23.20
2022-07-30T08:50:10.026Z,23.30
2022-07-30T08:52:50.172Z,23.40
2022-07-30T08:55:21.718Z,23.50
2022-07-30T08:57:50.791Z,23.50
2022-07-30T09:00:19.840Z,23.50
2022-07-30T09:02:51.664Z,23.50
2022-07-30T09:05:22.951Z,23.40
2022-07-30T09:07:51.532Z,23.40
2022-07-30T09:10:25.951Z,23.50
2022-07-30T09:12:54.836Z,23.30
2022-07-30T09:15:25.665Z,23.20
2022-07-30T09:17:57.791Z,23.00
2022-07-30T09:20:30.122Z,22.90
2022-07-30T09:23:01.129Z,22.80
2022-07-30T09:25:51.155Z,22.70
2022-07-30T09:28:39.971Z,22.50
2022-07-30T09:31:56.936Z,22.30
2022-07-30T09:34:44.287Z,22.00
2022-07-30T09:37:31.845Z,21.90
2022-07-30T09:40:35.923Z,21.60
2022-07-30T09:43:27.817Z,21.50
2022-07-30T09:46:12.117Z,21.40
2022-07-30T09:48:41.567Z,21.30
2022-07-30T09:51:15.934Z,21.20
2022-07-30T09:53:55.830Z,21.20
2022-07-30T09:56:30.179Z,21.10
2022-07-30T09:59:02.205Z,21.00
2022-07-30T10:01:56.225Z,21.00
2022-07-30T10:04:47.937Z,20.60
2022-07-30T10:07:25.462Z,20.30
2022-07-30T10:10:01.459Z,20.10
2022-07-30T10:12:33.881Z,19.90
2022-07-30T10:15:07.238Z,19.90
2022-07-30T10:17:38.757Z,19.80
2022-07-30T10:20:21.589Z,19.70
2022-07-30T10:23:15.935Z,19.60
2022-07-30T10:26:23.501Z,19.50
2022-07-30T10:29:12.890Z,19.40
2022-07-30T10:31:48.073Z,19.40
2022-07-30T10:34:23.516Z,19.20
2022-07-30T10:36:58.802Z,19.00
2022-07-30T10:39:34.521Z,18.80
2022-07-30T10:42:20.127Z,18.60
2022-07-30T10:45:09.162Z,18.50
2022-07-30T10:47:49.209Z,18.50
2022-07-30T10:50:22.328Z,18.60
2022-07-30T10:52:53.693Z,18.60
2022-07-30T10:55:37.106Z,18.60
2022-07-30T10:58:10.210Z,18.60
2022-07-30T11:01:00.121Z,18.50
2022-07-30T11:03:44.552Z,18.50
2022-07-30T11:06:28.308Z,18.60
2022-07-30T11:08:57.242Z,18.70
2022-07-30T11:12:05.821Z,18.40
2022-07-30T11:15:07.024Z,18.40
2022-07-30T11:18:12.665Z,18.40
2022-07-30T11:20:48.622Z,18.30
2022-07-30T11:23:37.478Z,18.10
2022-07-30T11:26:08.523Z,18.10
2022-07-30T11:28:45.668Z,18.00
2022-07-30T11:31:36.944Z,18.00
2022-07-30T11:34:29.741Z,17.90
2022-07-30T11:37:17.722Z,17.90
2022-07-30T11:40:10.602Z,17.90
2022-07-30T11:42:41.525Z,18.00
2022-07-30T11:45:30.985Z,18.00
2022-07-30T11:48:03.314Z,17.90
2022-07-30T11:50:34.261Z,17.80
2022-07-30T11:53:06.265Z,17.80
2022-07-30T11:55:36.898Z,17.70
2022-07-30T11:58:08.561Z,17.60
2022-07-30T12:00:39.843Z,17.60
2022-07-30T12:03:11.663Z,17.70
2022-07-30T12:05:40.933Z,17.80
2022-07-30T12:08:35.469Z,17.80
2022-07-30T12:11:02.170Z,17.70
2022-07-30T12:13:44.017Z,17.70
2022-07-30T12:16:17.663Z,17.90
2022-07-30T12:18:47.601Z,17.90
2022-07-30T12:21:17.048Z,17.90
2022-07-30T12:23:56.013Z,17.90
2022-07-30T12:26:26.704Z,17.80
2022-07-30T12:28:57.179Z,17.90
2022-07-30T12:31:26.111Z,17.80
2022-07-30T12:33:58.169Z,17.80
2022-07-30T12:36:32.694Z,17.90
2022-07-30T12:39:03.362Z,17.90
2022-07-30T12:41:46.080Z,17.90
2022-07-30T12:44:36.207Z,17.90
2022-07-30T12:47:05.929Z,17.90
2022-07-30T12:49:36.610Z,17.80
2022-07-30T12:52:28.237Z,17.80
2022-07-30T12:55:08.827Z,17.80
2022-07-30T12:58:07.728Z,17.80
2022-07-30T13:00:52.054Z,17.90
2022-07-30T13:03:22.541Z,17.90
2022-07-30T13:05:55.594Z,17.80
2022-07-30T13:08:53.031Z,17.80
2022-07-30T13:11:24.592Z,17.80
2022-07-30T13:13:53.973Z,17.90
2022-07-30T13:16:23.143Z,17.90
2022-07-30T13:18:52.270Z,17.90
2022-07-30T13:21:20.818Z,17.80
2022-07-30T13:23:49.422Z,17.80
2022-07-30T13:26:17.974Z,17.80
2022-07-30T13:28:47.932Z,17.80
2022-07-30T13:31:16.546Z,17.80
2022-07-30T13:33:45.483Z,17.80
2022-07-30T13:36:14.157Z,17.80
2022-07-30T13:38:43.732Z,17.90
2022-07-30T13:41:12.516Z,17.90
2022-07-30T13:43:41.251Z,18.00
2022-07-30T13:46:11.111Z,18.00
2022-07-30T13:48:40.329Z,18.00
2022-07-30T13:51:09.000Z,18.00
2022-07-30T13:53:37.702Z,17.90
2022-07-30T13:56:12.477Z,18.00
2022-07-30T13:58:41.692Z,18.10
2022-07-30T14:01:15.785Z,18.10
2022-07-30T14:03:49.367Z,18.00
2022-07-30T14:06:19.356Z,18.00
2022-07-30T14:08:48.186Z,18.00
2022-07-30T14:11:17.952Z,17.90
2022-07-30T14:13:46.882Z,18.00
2022-07-30T14:16:42.512Z,18.00
2022-07-30T14:19:05.668Z,18.00
2022-07-30T14:21:34.638Z,18.00
2022-07-30T14:24:05.272Z,17.90
2022-07-30T14:26:36.772Z,18.00
2022-07-30T14:29:05.521Z,18.00
2022-07-30T14:31:35.417Z,17.90
2022-07-30T14:34:05.011Z,17.90
2022-07-30T14:36:34.120Z,18.00
2022-07-30T14:39:04.294Z,18.00
2022-07-30T14:41:33.185Z,18.00
2022-07-30T14:44:02.573Z,18.00
2022-07-30T14:46:31.189Z,18.00
2022-07-30T14:49:01.206Z,18.00
2022-07-30T14:51:33.908Z,17.90
2022-07-30T14:54:03.440Z,17.80
2022-07-30T14:56:32.063Z,17.80
2022-07-30T14:59:01.320Z,17.80
2022-07-30T15:01:30.542Z,17.90
2022-07-30T15:04:00.632Z,17.80
2022-07-30T15:06:29.261Z,17.80
2022-07-30T15:08:58.127Z,17.80
2022-07-30T15:11:26.723Z,17.70
2022-07-30T15:13:55.593Z,17.70
2022-07-30T15:16:24.333Z,17.70
2022-07-30T15:18:53.095Z,17.70
2022-07-30T15:21:23.039Z,17.70
2022-07-30T15:23:51.850Z,17.70
2022-07-30T15:26:20.403Z,17.60
2022-07-30T15:28:49.166Z,17.60
2022-07-30T15:31:18.047Z,17.50
2022-07-30T15:33:47.290Z,17.50
2022-07-30T15:36:15.827Z,17.50
2022-07-30T15:38:47.069Z,17.30
2022-07-30T15:41:15.687Z,17.30
2022-07-30T15:43:44.630Z,17.20
2022-07-30T15:46:13.182Z,17.20
2022-07-30T15:48:41.690Z,17.20
2022-07-30T15:51:11.889Z,17.20
2022-07-30T15:53:40.426Z,17.20
2022-07-30T15:56:10.805Z,17.10
2022-07-30T15:58:43.267Z,17.10
2022-07-30T16:01:12.303Z,17.20
2022-07-30T16:03:40.879Z,17.20
2022-07-30T16:06:09.513Z,17.10
2022-07-30T16:08:38.008Z,17.20
2022-07-30T16:11:06.669Z,17.10
2022-07-30T16:13:36.813Z,17.20
2022-07-30T16:16:05.774Z,17.20
2022-07-30T16:18:34.286Z,17.20
2022-07-30T16:21:02.807Z,17.20
2022-07-30T16:23:36.273Z,17.20
2022-07-30T16:26:05.628Z,17.20
2022-07-30T16:28:34.209Z,17.20
2022-07-30T16:31:06.211Z,17.20
2022-07-30T16:33:34.930Z,17.20
2022-07-30T16:36:03.453Z,17.20
2022-07-30T16:38:32.308Z,17.20
2022-07-30T16:41:00.885Z,17.20
2022-07-30T16:43:31.976Z,17.20
2022-07-30T16:46:00.768Z,17.20
2022-07-30T16:48:32.821Z,17.20
2022-07-30T16:51:01.329Z,17.20
2022-07-30T16:53:30.153Z,17.10
2022-07-30T16:55:58.655Z,17.10
2022-07-30T16:58:30.694Z,17.10
2022-07-30T17:01:00.043Z,17.10
2022-07-30T17:03:29.991Z,17.10
2022-07-30T17:05:58.483Z,17.10
2022-07-30T17:08:27.065Z,17.10
2022-07-30T17:10:57.266Z,17.10
2022-07-30T17:13:29.271Z,17.10
2022-07-30T17:15:57.791Z,17.00
2022-07-30T17:18:27.538Z,17.10
2022-07-30T17:20:57.451Z,17.10
2022-07-30T17:23:26.043Z,17.00
2022-07-30T17:25:54.632Z,17.00
2022-07-30T17:28:26.917Z,17.00
2022-07-30T17:30:55.987Z,17.00
2022-07-30T17:33:24.428Z,17.00
2022-07-30T17:35:52.929Z,17.00
2022-07-30T17:38:22.922Z,17.00
2022-07-30T17:40:51.440Z,17.00
2022-07-30T17:43:19.925Z,17.00
2022-07-30T17:45:48.528Z,17.00
2022-07-30T17:48:18.176Z,17.00
2022-07-30T17:50:46.665Z,17.00
2022-07-30T17:53:15.159Z,17.00
2022-07-30T17:55:57.693Z,17.00
2022-07-30T17:58:27.021Z,17.00
2022-07-30T18:00:57.373Z,17.00
2022-07-30T18:03:26.095Z,17.00
2022-07-30T18:05:56.252Z,17.00
2022-07-30T18:08:25.082Z,17.00
2022-07-30T18:10:55.095Z,17.00
2022-07-30T18:13:26.712Z,17.10
2022-07-30T18:15:55.894Z,17.00
2022-07-30T18:18:24.599Z,17.00
2022-07-30T18:20:53.210Z,17.00
2022-07-30T18:23:22.817Z,17.00
2022-07-30T18:25:54.279Z,17.10
2022-07-30T18:28:24.907Z,17.10
2022-07-30T18:30:55.089Z,17.10
2022-07-30T18:33:23.585Z,17.10
2022-07-30T18:35:52.517Z,17.10
2022-07-30T18:38:21.016Z,17.10
2022-07-30T18:40:58.606Z,17.10
2022-07-30T18:43:29.450Z,17.10
2022-07-30T18:46:00.378Z,17.10
2022-07-30T18:48:29.043Z,17.00
2022-07-30T18:50:57.601Z,17.10
2022-07-30T18:53:26.091Z,17.10
2022-07-30T18:55:54.648Z,17.10
2022-07-30T18:58:23.684Z,17.10
2022-07-30T19:00:53.843Z,17.10
2022-07-30T19:03:23.261Z,17.10
2022-07-30T19:05:52.024Z,17.10
2022-07-30T19:08:20.759Z,17.00
2022-07-30T19:10:49.276Z,17.00
2022-07-30T19:13:17.828Z,17.00
2022-07-30T19:15:46.391Z,17.00
2022-07-30T19:18:16.264Z,17.00
2022-07-30T19:20:45.004Z,17.00
2022-07-30T19:23:15.296Z,17.00
2022-07-30T19:25:43.761Z,17.00
2022-07-30T19:28:13.923Z,17.00
2022-07-30T19:30:42.442Z,17.00
2022-07-30T19:33:15.146Z,17.00
2022-07-30T19:35:45.922Z,17.00
2022-07-30T19:38:21.654Z,17.00
2022-07-30T19:40:51.211Z,17.00
2022-07-30T19:43:24.014Z,17.00
2022-07-30T19:45:53.210Z,17.00
2022-07-30T19:48:28.904Z,17.00
2022-07-30T19:51:20.721Z,17.00
2022-07-30T19:53:49.786Z,17.00
2022-07-30T19:56:18.816Z,16.90
2022-07-30T19:58:48.165Z,16.90
2022-07-30T20:01:16.670Z,16.90
2022-07-30T20:03:46.129Z,16.90
2022-07-30T20:06:18.524Z,16.90
2022-07-30T20:08:49.699Z,16.90
2022-07-30T20:11:35.052Z,16.90
2022-07-30T20:14:05.433Z,16.90
2022-07-30T20:16:38.123Z,16.90
2022-07-30T20:19:08.022Z,16.80
2022-07-30T20:21:56.986Z,16.90
2022-07-30T20:24:26.616Z,16.90
2022-07-30T20:26:55.219Z,16.90
2022-07-30T20:29:24.258Z,16.90
2022-07-30T20:31:53.501Z,16.90
2022-07-30T20:34:26.009Z,16.90
2022-07-30T20:36:58.094Z,16.90
2022-07-30T20:39:42.459Z,16.80
2022-07-30T20:42:12.927Z,16.90
2022-07-30T20:44:49.318Z,16.90
2022-07-30T20:47:33.391Z,16.80
2022-07-30T20:50:09.418Z,16.90
2022-07-30T20:52:41.254Z,16.90
2022-07-30T20:55:16.878Z,16.90
2022-07-30T20:58:00.307Z,16.90
2022-07-30T21:00:36.725Z,16.90
2022-07-30T21:03:05.643Z,16.90
2022-07-30T21:05:35.745Z,16.90
2022-07-30T21:08:06.135Z,16.90
2022-07-30T21:10:35.873Z,17.00
2022-07-30T21:13:07.654Z,16.90
2022-07-30T21:15:36.414Z,16.90
2022-07-30T21:18:14.450Z,16.90
2022-07-30T21:20:43.120Z,16.90
2022-07-30T21:23:22.314Z,16.90
2022-07-30T21:26:03.077Z,16.90
2022-07-30T21:28:35.629Z,16.90
2022-07-30T21:31:06.939Z,16.90
2022-07-30T21:33:36.960Z,16.90
2022-07-30T21:36:10.227Z,16.80
2022-07-30T21:38:42.377Z,16.80
2022-07-30T21:41:14.427Z,16.90
2022-07-30T21:43:44.592Z,16.90
2022-07-30T21:46:14.472Z,16.90
2022-07-30T21:48:46.563Z,16.90
2022-07-30T21:51:15.835Z,16.90
2022-07-30T21:53:46.079Z,16.90
2022-07-30T21:56:16.346Z,16.90
2022-07-30T21:58:45.818Z,16.90
2022-07-30T22:01:22.628Z,16.90
2022-07-30T22:04:02.719Z,16.80
2022-07-30T22:06:37.818Z,16.80
2022-07-30T22:09:18.930Z,16.80
2022-07-30T22:12:00.725Z,16.80
2022-07-30T22:14:31.400Z,16.90
2022-07-30T22:17:00.545Z,16.90
2022-07-30T22:19:32.994Z,16.90
2022-07-30T22:22:05.057Z,16.90
2022-07-30T22:24:51.385Z,16.90
2022-07-30T22:27:19.895Z,16.90
2022-07-30T22:29:50.996Z,16.90
2022-07-30T22:32:24.999Z,16.90
2022-07-30T22:34:54.680Z,16.90
2022-07-30T22:37:27.073Z,17.00
2022-07-30T22:40:06.671Z,17.00
2022-07-30T22:42:36.584Z,17.00
2022-07-30T22:45:45.024Z,16.90
2022-07-30T22:48:10.064Z,16.90
2022-07-30T22:50:40.575Z,16.90
2022-07-30T22:53:14.444Z,16.90
2022-07-30T22:55:54.710Z,16.90
2022-07-30T22:58:26.047Z,16.90
2022-07-30T23:00:55.150Z,16.80
2022-07-30T23:03:23.768Z,16.80
2022-07-30T23:05:56.786Z,16.80
2022-07-30T23:08:30.407Z,16.80
2022-07-30T23:11:01.095Z,16.70
2022-07-30T23:13:30.656Z,16.70
2022-07-30T23:15:59.168Z,16.70
2022-07-30T23:18:27.762Z,16.70
2022-07-30T23:21:00.233Z,16.70
2022-07-30T23:23:30.938Z,16.70
2022-07-30T23:26:04.309Z,16.60
2022-07-30T23:28:33.118Z,16.60
2022-07-30T23:31:02.866Z,16.60
2022-07-30T23:33:33.201Z,16.60
2022-07-30T23:36:02.021Z,16.60
2022-07-30T23:38:30.733Z,16.60
2022-07-30T23:41:01.500Z,16.60
2022-07-30T23:43:31.709Z,16.50
2022-07-30T23:46:00.555Z,16.50
2022-07-30T23:48:29.315Z,16.40
2022-07-30T23:50:57.797Z,16.40
2022-07-30T23:53:26.874Z,16.40
2022-07-30T23:55:55.479Z,16.40
2022-07-30T23:58:23.929Z,16.30
